Decoded Metar for KIXA ( in ) (IATA:) | Meteo·Mobile Aviation Weather
aviador You're here:

KIXA Decoded Metar

in
Report Time2019-07-20 13:15:00
UTC Time2019-07-20 13:25:19
Flight Rules vfr VFR
WindCalm
Visibility9999 m
Phenomena:N/A
Clouds:N/A
Expected CloudBase > 800 ft AGL from Temp-Dew spread
CeilingNone
Temp28°C
Dew Point26°C (89% RH)
Heat Index33.6°C
QNH1015 hPa
Raw Report
METAR KIXA 201315Z AUTO 00000KT 10SM CLR 28/26 A2998 RMK AO2=

Extra information for KIXA:More info

Social comments